x

South Georgian Bay (45143) Wave Buoy

12:00pm - Thu 31st Jul 2014 All times are CDT. -5 hours from GMT.

  • Sig Wave height 1.0ft
  • Peak Period 3s
  • Wind
    9mph, 13mph gusts
  • Sea Temp 63°f
  • Air Temp 63°f
  • Sea Pressure 1015mb
  • South Georgian Bay
  • South Georgian Bay

More Historic Weather Station data

Upgrade to MSW Pro to gain access to the past 30 days of data for over 8000 Wavebouys and Weather Stations around the globe.

Join Pro

Comparision Forecast

View Surf forecast
   
Thu 07/31 12:00pm 1ft 3s 9 13 mph 1015mb 63f 63f
11:00am 1ft 3s 7
mph
1015.2mb 63f 61f
10:00am 1.3ft 3s 11
mph
1015.2mb 63f 60f
9:00am 1ft 3s 11 16 mph 1015mb 63f 59f
8:00am 1ft 2s 11 13 mph 1015mb 63f 59f
7:00am 1ft 3s 9
mph
1014.7mb 63f 58f
6:00am 1ft 3s 9 11 mph 1014.8mb 62f 58f
5:00am 1.3ft 3s 7 9 mph 1014.6mb 62f 58f
4:00am 1.6ft 3s 7 9 mph 1014.4mb 62f 58f
3:00am 2ft 3s 16 20 mph 1014.4mb 62f 58f
2:00am 2ft 3s 13 16 mph 1014.2mb 62f 59f
1:00am 1.6ft 3s 16 20 mph 1014.4mb 63f 60f
12:00am 1.3ft 4s 16 20 mph 1015mb 63f 60f
Wed 07/30 11:00pm 1.3ft 3s 11 13 mph 1014.9mb 63f 59f
10:00pm 1.3ft 3s 9
mph
1015mb 63f 60f
9:00pm 1ft 2s 11
mph
1015.1mb 63f 60f
8:00pm 0.7ft 3s 11 13 mph 1014.9mb 63f 61f
7:00pm 0.7ft 3s 7 9 mph 1014.6mb 63f 61f
6:00pm 0.7ft 3s 4 7 mph 1014.6mb 64f 61f
5:00pm 0.7ft 3s 4
mph
1014.4mb 64f 61f
4:00pm 1ft 3s 4
mph
1014.3mb 64f 61f
3:00pm 0.7ft 3s 7 9 mph 1014.4mb 63f 61f
2:00pm 0.7ft 3s 9
mph
1014.4mb 63f 61f
1:00pm 0.7ft 4s 9 11 mph 1014.4mb 64f 61f
12:00pm 0.7ft 3s 9
mph
1014.6mb 63f 61f
11:00am 0.7ft 3s 7 9 mph 1014.6mb 63f 60f
10:00am 1ft 3s 7 9 mph 1014.5mb 63f 59f
9:00am 1ft 3s 11 13 mph 1014.4mb 62f 59f
8:00am 1ft 3s 11 13 mph 1014.1mb 62f 59f
7:00am 1ft 3s 11 13 mph 1014mb 62f 59f
6:00am 1ft 3s 9 11 mph 1013.7mb 62f 58f
5:00am 1ft 3s 13 16 mph 1013.1mb 61f 58f
4:00am 1ft 2s 13
mph
1012.7mb 61f 59f
3:00am 1ft 2s 11 13 mph 1012.3mb 62f 59f
2:00am 1ft 2s 11 13 mph 1012.4mb 62f 60f
1:00am 1ft 2s 11 13 mph 1012.6mb 62f 60f
12:00am 1ft 2s 11 13 mph 1012.9mb 62f 60f
Tue 07/29 11:00pm 1.3ft 3s 13 16 mph 1012.8mb 62f 60f
10:00pm 1.3ft 3s 11 13 mph 1013mb 62f 60f
9:00pm 1.3ft 3s 11
mph
1013.2mb 63f 60f
8:00pm 1.3ft 3s 11 13 mph 1013mb 63f 61f
7:00pm 1.6ft 3s 16 18 mph 1012.6mb 62f 61f
6:00pm 1.3ft 3s 13 16 mph 1012.8mb 62f 61f
5:00pm 1.6ft 4s 11 13 mph 1012.7mb 62f 61f
4:00pm 1.6ft 4s 11 13 mph 1012.5mb 62f 61f
3:00pm 1.6ft 3s 13 16 mph 1012.5mb 62f 60f
2:00pm 1.3ft 3s 9 13 mph 1012.6mb 61f 60f
1:00pm 1.3ft 3s 9 11 mph 1012.7mb 61f 60f
12:00pm 1.3ft 3s 11 13 mph 1012.8mb 61f 59f
11:00am 1.3ft 3s 9 11 mph 1013.1mb 61f 59f
10:00am 1.6ft 4s 11 13 mph 1013.2mb 61f 59f
9:00am 1.6ft 4s 11 13 mph 1013.1mb 62f 59f
8:00am 2ft 4s 11 13 mph 1013.1mb 62f 58f
7:00am 1.6ft 4s 11 13 mph 1012.8mb 62f 59f
6:00am 1.6ft 4s 11 13 mph 1012.6mb 62f 59f
5:00am 1.6ft 4s 11 13 mph 1012.1mb 62f 59f
4:00am 1.6ft 4s 11
mph
1012mb 62f 60f
3:00am 2ft 4s 9 11 mph 1012mb 62f 60f
2:00am 2ft 4s 9 11 mph 1012mb 62f 60f
1:00am 2.5ft 4s 13 18 mph 1012.2mb 62f 61f
12:00am 2.5ft 4s 13 16 mph 1012.2mb 62f 61f
Mon 07/28 11:00pm 2.5ft 4s 13 16 mph 1012.3mb 62f 62f
10:00pm 2.5ft 4s 16 18 mph 1012.3mb 61f 62f
9:00pm 2.5ft 4s 13 16 mph 1012.6mb 61f 61f
8:00pm 2.5ft 4s 13 18 mph 1012.4mb 61f 60f
7:00pm 3ft 4s 16 18 mph 1012mb 61f 60f
6:00pm 3.5ft 5s 16 18 mph 1011.7mb 60f 60f
5:00pm 3.5ft 5s 18 20 mph 1011.5mb 60f 60f
4:00pm 4.5ft 5s 18 22 mph 1011.4mb 61f 59f
3:00pm 4ft 5s 20 22 mph 1011.1mb 61f 61f
2:00pm 4ft 5s 20 25 mph 1011.1mb 61f 59f
1:00pm 4ft 5s 18 25 mph 1011.2mb 61f 58f
12:00pm 4.5ft 6s 18
mph
1011.2mb 62f 57f
11:00am 4.5ft 5s 18 25 mph 1011.1mb 62f 57f
10:00am 4.5ft 6s 20 27 mph 1010.5mb 62f 56f
9:00am 4.5ft 6s 20 25 mph 1009.9mb 61f 56f
8:00am 5ft 5s 20 27 mph 1009.5mb 62f 57f
7:00am 5ft 6s 25 29 mph 1009.3mb 61f 57f
6:00am 6ft 6s 27 31 mph 1008.7mb 61f 58f
4:00am 5.5ft 6s 25 29 mph 1007.6mb 60f 60f
3:00am 5.5ft 5s 27 31 mph 1006.6mb 60f 61f
2:00am 4.5ft 4s 27 31 mph 1005.8mb 59f 62f
1:00am 4ft 4s 25 31 mph 1005.5mb 60f 63f
12:00am 3.5ft 4s 18 22 mph 1005.5mb 60f 64f
Sun 07/27 11:00pm 3ft 4s 18 22 mph 1005.7mb 60f 64f
10:00pm 2.5ft 4s 16 18 mph 1005.6mb 60f 65f
9:00pm 2ft 4s 16 18 mph 1005.6mb 60f 65f
8:00pm 1.3ft 3s 13 18 mph 1005.3mb 61f 66f
7:00pm 1ft 3s 13 16 mph 1004.4mb 62f 66f